createdAt,value
2019-04-28T00:02:22.442Z,89.97
2019-04-28T00:04:51.460Z,89.74
2019-04-28T00:07:21.526Z,90.38
2019-04-28T00:09:51.164Z,90.45
2019-04-28T00:12:21.039Z,90.77
2019-04-28T00:14:51.536Z,90.54
2019-04-28T00:17:21.152Z,90.74
2019-04-28T00:19:51.508Z,90.34
2019-04-28T00:22:21.559Z,89.84
2019-04-28T00:24:56.943Z,90.21
2019-04-28T00:27:25.236Z,90.13
2019-04-28T00:29:53.488Z,89.42
2019-04-28T00:32:21.761Z,88.88
2019-04-28T00:34:51.196Z,88.74
2019-04-28T00:37:23.885Z,89.32
2019-04-28T00:39:52.132Z,89.11
2019-04-28T00:42:22.616Z,89.54
2019-04-28T00:44:51.522Z,90.46
2019-04-28T00:47:21.020Z,90.21
2019-04-28T00:49:48.913Z,89.57
2019-04-28T00:52:17.938Z,90.91
2019-04-28T00:54:46.623Z,91.87
2019-04-28T00:57:14.899Z,90.70
2019-04-28T00:59:54.165Z,90.39
2019-04-28T01:02:21.207Z,90.83
2019-04-28T01:04:51.313Z,90.79
2019-04-28T01:07:21.134Z,91.58
2019-04-28T01:09:51.508Z,90.89
2019-04-28T01:12:21.295Z,90.77
2019-04-28T01:14:50.314Z,91.00
2019-04-28T01:17:21.366Z,91.17
2019-04-28T01:20:03.515Z,91.61
2019-04-28T01:22:36.861Z,91.33
2019-04-28T01:25:06.386Z,90.53
2019-04-28T01:27:36.300Z,90.56
2019-04-28T01:30:11.031Z,91.21
2019-04-28T01:32:40.028Z,91.42
2019-04-28T01:35:09.509Z,90.73
2019-04-28T01:37:37.941Z,91.04
2019-04-28T01:40:06.647Z,91.04
2019-04-28T01:42:34.913Z,91.25
2019-04-28T01:45:03.723Z,91.26
2019-04-28T01:47:31.971Z,91.51
2019-04-28T01:50:02.044Z,91.61
2019-04-28T01:52:30.458Z,91.70
2019-04-28T01:55:00.466Z,91.92
2019-04-28T01:57:29.959Z,91.77
2019-04-28T01:59:59.790Z,91.57
2019-04-28T02:02:30.061Z,91.21
2019-04-28T02:04:59.869Z,90.84
2019-04-28T02:07:28.307Z,90.26
2019-04-28T02:09:56.595Z,89.98
2019-04-28T02:12:24.844Z,90.04
2019-04-28T02:14:53.115Z,90.14
2019-04-28T02:17:21.368Z,89.97
2019-04-28T02:19:51.240Z,90.35
2019-04-28T02:22:36.564Z,90.55
2019-04-28T02:25:06.672Z,90.34
2019-04-28T02:27:34.916Z,89.70
2019-04-28T02:30:03.827Z,89.62
2019-04-28T02:32:31.460Z,89.03
2019-04-28T02:35:01.346Z,89.27
2019-04-28T02:37:30.550Z,89.30
2019-04-28T02:40:02.793Z,89.11
2019-04-28T02:42:30.902Z,89.53
2019-04-28T02:45:00.502Z,89.01
2019-04-28T02:47:33.643Z,88.72
2019-04-28T02:50:06.419Z,88.59
2019-04-28T02:52:52.319Z,89.53
2019-04-28T02:55:21.288Z,88.97
2019-04-28T02:57:51.572Z,89.31
2019-04-28T03:00:21.616Z,88.89
2019-04-28T03:02:51.357Z,89.03
2019-04-28T03:05:21.641Z,87.93
2019-04-28T03:07:51.552Z,88.79
2019-04-28T03:10:21.386Z,89.09
2019-04-28T03:12:51.600Z,89.18
2019-04-28T03:15:20.562Z,89.41
2019-04-28T03:17:52.448Z,87.81
2019-04-28T03:20:20.986Z,87.93
2019-04-28T03:22:51.068Z,88.20
2019-04-28T03:25:30.621Z,88.80
2019-04-28T03:31:40.510Z,89.30
2019-04-28T03:33:47.282Z,89.88
2019-04-28T03:36:15.050Z,90.33
2019-04-28T03:38:40.636Z,90.08
2019-04-28T03:41:11.163Z,90.13
2019-04-28T03:43:40.559Z,90.31
2019-04-28T03:46:10.793Z,90.53
2019-04-28T03:48:40.991Z,89.10
2019-04-28T03:51:10.808Z,88.37
2019-04-28T03:53:40.947Z,89.42
2019-04-28T03:56:11.391Z,89.90
2019-04-28T03:58:40.648Z,90.06
2019-04-28T04:01:10.709Z,90.16
2019-04-28T04:03:41.506Z,90.17
2019-04-28T04:06:10.540Z,90.07
2019-04-28T04:08:40.833Z,89.70
2019-04-28T04:11:22.571Z,89.13
2019-04-28T04:13:52.448Z,89.31
2019-04-28T04:16:22.362Z,89.04
2019-04-28T04:18:53.757Z,88.84
2019-04-28T04:21:22.383Z,88.49
2019-04-28T04:23:51.061Z,88.68
2019-04-28T04:26:21.282Z,88.49
2019-04-28T04:28:51.405Z,88.53
2019-04-28T04:31:19.979Z,88.59
2019-04-28T04:33:50.627Z,88.87
2019-04-28T04:36:20.761Z,88.97
2019-04-28T04:38:50.951Z,89.05
2019-04-28T04:41:20.119Z,89.08
2019-04-28T04:43:51.039Z,89.13
2019-04-28T04:46:21.919Z,89.26
2019-04-28T04:48:50.874Z,89.13
2019-04-28T04:51:21.309Z,89.62
2019-04-28T04:53:51.063Z,89.34
2019-04-28T04:56:21.721Z,89.07
2019-04-28T04:58:50.603Z,89.32
2019-04-28T05:01:23.187Z,89.95
2019-04-28T05:06:56.875Z,88.92
2019-04-28T05:09:25.117Z,89.01
2019-04-28T05:11:53.396Z,89.12
2019-04-28T05:14:21.640Z,89.25
2019-04-28T05:16:49.923Z,89.09
2019-04-28T05:19:19.455Z,89.20
2019-04-28T05:21:49.838Z,89.10
2019-04-28T05:24:25.341Z,88.73
2019-04-28T05:26:53.613Z,88.86
2019-04-28T05:29:26.903Z,88.47
2019-04-28T05:31:54.799Z,88.57
2019-04-28T05:34:24.080Z,88.49
2019-04-28T05:36:51.793Z,88.70
2019-04-28T05:39:20.071Z,88.30
2019-04-28T05:41:50.245Z,87.08
2019-04-28T05:44:20.114Z,86.91
2019-04-28T05:46:50.367Z,87.22
2019-04-28T05:49:29.711Z,87.51
2019-04-28T05:52:15.953Z,87.46
2019-04-28T05:54:49.649Z,87.46
2019-04-28T05:57:20.672Z,87.12
2019-04-28T05:59:50.762Z,87.37
2019-04-28T06:02:23.558Z,86.80
2019-04-28T06:04:51.838Z,87.41
2019-04-28T06:07:30.752Z,87.14
2019-04-28T06:10:00.143Z,85.70
2019-04-28T06:12:30.268Z,85.96
2019-04-28T06:15:00.038Z,84.96
2019-04-28T06:17:29.468Z,85.91
2019-04-28T06:19:57.794Z,86.03
2019-04-28T06:22:26.046Z,84.68
2019-04-28T06:24:54.319Z,83.23
2019-04-28T06:27:22.567Z,83.97
2019-04-28T06:29:50.834Z,83.10
2019-04-28T06:32:19.082Z,84.13
2019-04-28T06:34:47.351Z,81.79
2019-04-28T06:37:15.600Z,81.72
2019-04-28T06:39:43.869Z,80.95
2019-04-28T06:42:12.123Z,80.75
2019-04-28T06:44:40.387Z,81.45
2019-04-28T06:47:08.633Z,81.51
2019-04-28T06:49:36.901Z,81.64
2019-04-28T06:52:05.151Z,80.03
2019-04-28T06:54:33.493Z,81.61
2019-04-28T06:57:01.854Z,81.49
2019-04-28T06:59:30.191Z,79.28
2019-04-28T07:01:58.449Z,79.64
2019-04-28T07:04:26.800Z,78.97
2019-04-28T07:06:56.830Z,79.38
2019-04-28T07:09:25.186Z,78.98
2019-04-28T07:11:53.543Z,78.90
2019-04-28T07:14:21.813Z,80.35
2019-04-28T07:16:50.089Z,79.20
2019-04-28T07:19:18.431Z,77.72
2019-04-28T07:22:00.309Z,76.39
2019-04-28T07:24:28.566Z,77.74
2019-04-28T07:26:56.809Z,74.86
2019-04-28T07:29:25.228Z,76.56
2019-04-28T07:31:53.545Z,76.95
2019-04-28T07:34:22.086Z,75.66
2019-04-28T07:36:50.345Z,77.33
2019-04-28T07:39:18.614Z,76.94
2019-04-28T07:41:46.932Z,73.33
2019-04-28T07:44:15.228Z,74.41
2019-04-28T07:46:43.474Z,73.17
2019-04-28T07:49:11.741Z,72.46
2019-04-28T07:51:50.348Z,74.82
2019-04-28T07:54:20.098Z,73.67
2019-04-28T07:56:47.731Z,74.37
2019-04-28T07:59:16.006Z,74.37
2019-04-28T08:01:44.726Z,73.37
2019-04-28T08:04:12.975Z,73.45
2019-04-28T08:06:41.243Z,74.11
2019-04-28T08:09:14.107Z,74.22
2019-04-28T08:11:42.377Z,74.66
2019-04-28T08:14:10.623Z,74.26
2019-04-28T08:16:39.140Z,73.89
2019-04-28T08:19:07.391Z,73.98
2019-04-28T08:21:35.665Z,74.42
2019-04-28T08:24:03.911Z,73.28
2019-04-28T08:26:32.277Z,74.57
2019-04-28T08:29:00.527Z,74.94
2019-04-28T08:31:32.871Z,74.13
2019-04-28T08:34:03.590Z,73.49
2019-04-28T08:36:31.867Z,74.07
2019-04-28T08:39:00.108Z,73.94
2019-04-28T08:41:28.450Z,76.01
2019-04-28T08:43:56.700Z,75.32
2019-04-28T08:46:24.969Z,75.33
2019-04-28T08:48:53.221Z,74.74
2019-04-28T08:51:21.510Z,73.30
2019-04-28T08:53:49.766Z,73.74
2019-04-28T08:56:18.033Z,75.14
2019-04-28T08:58:46.278Z,74.43
2019-04-28T09:01:14.549Z,75.14
2019-04-28T09:03:43.710Z,75.88
2019-04-28T09:06:12.002Z,75.88
2019-04-28T09:08:40.263Z,76.49
2019-04-28T09:11:08.558Z,76.69
2019-04-28T09:13:36.824Z,75.28
2019-04-28T09:16:05.096Z,75.55
2019-04-28T09:18:33.363Z,77.37
2019-04-28T09:21:02.505Z,78.27
2019-04-28T09:23:30.790Z,77.51
2019-04-28T09:25:59.062Z,78.12
2019-04-28T09:28:27.383Z,78.24
2019-04-28T09:30:55.674Z,77.12
2019-04-28T09:33:23.943Z,78.36
2019-04-28T09:35:52.200Z,76.80
2019-04-28T09:38:20.454Z,75.64
2019-04-28T09:40:48.810Z,76.79
2019-04-28T09:43:19.171Z,76.65
2019-04-28T09:45:55.835Z,77.43
2019-04-28T09:48:24.087Z,76.65
2019-04-28T09:50:52.356Z,77.02
2019-04-28T09:53:20.617Z,76.76
2019-04-28T09:55:49.233Z,75.24
2019-04-28T09:58:17.496Z,77.86
2019-04-28T10:00:45.772Z,75.57
2019-04-28T10:03:14.022Z,74.76
2019-04-28T10:05:42.305Z,75.06
2019-04-28T10:08:10.566Z,74.80
2019-04-28T10:10:38.983Z,74.32
2019-04-28T10:13:07.266Z,74.35
2019-04-28T10:15:35.528Z,74.50
2019-04-28T10:18:03.802Z,74.71
2019-04-28T10:20:32.132Z,76.74
2019-04-28T10:23:00.419Z,74.61
2019-04-28T10:25:28.682Z,74.67
2019-04-28T10:27:56.966Z,76.73
2019-04-28T10:30:26.179Z,78.39
2019-04-28T10:32:54.457Z,79.58
2019-04-28T10:35:22.731Z,79.97
2019-04-28T10:37:51.074Z,80.12
2019-04-28T10:40:36.326Z,81.22
2019-04-28T10:43:04.692Z,82.73
2019-04-28T10:45:34.736Z,84.54
2019-04-28T10:48:03.189Z,80.66
2019-04-28T10:50:31.525Z,81.41
2019-04-28T10:52:59.824Z,81.34
2019-04-28T10:55:28.154Z,83.21
2019-04-28T10:57:56.516Z,81.61
2019-04-28T11:00:26.398Z,82.02
2019-04-28T11:02:54.047Z,82.13
2019-04-28T11:05:26.934Z,81.21
2019-04-28T11:07:55.665Z,77.80
2019-04-28T11:10:24.356Z,77.41
2019-04-28T11:12:52.636Z,78.94
2019-04-28T11:15:22.544Z,77.34
2019-04-28T11:17:50.822Z,79.36
2019-04-28T11:20:19.913Z,78.88
2019-04-28T11:22:47.580Z,79.38
2019-04-28T11:25:15.907Z,81.03
2019-04-28T11:27:45.054Z,74.90
2019-04-28T11:30:14.626Z,72.72
2019-04-28T11:32:44.557Z,71.79
2019-04-28T11:35:21.874Z,76.97
2019-04-28T11:37:47.438Z,76.44
2019-04-28T11:40:15.683Z,74.20
2019-04-28T11:42:43.969Z,72.05
2019-04-28T11:45:12.233Z,72.63
2019-04-28T11:47:40.511Z,69.36
2019-04-28T11:50:09.658Z,67.95
2019-04-28T11:52:38.116Z,68.99
2019-04-28T11:55:07.023Z,72.45
2019-04-28T11:57:35.387Z,72.90
2019-04-28T12:00:06.222Z,70.95
2019-04-28T12:02:34.502Z,72.83
2019-04-28T12:05:02.935Z,69.29
2019-04-28T12:07:31.287Z,67.58
2019-04-28T12:10:05.935Z,64.41
2019-04-28T12:12:32.843Z,58.58
2019-04-28T12:15:11.938Z,62.23
2019-04-28T12:17:44.730Z,60.24
2019-04-28T12:20:14.622Z,58.23
2019-04-28T12:22:43.033Z,62.11
2019-04-28T12:25:11.285Z,61.56
2019-04-28T12:27:39.624Z,63.19
2019-04-28T12:30:08.153Z,64.90
2019-04-28T12:32:36.702Z,65.80
2019-04-28T12:35:05.438Z,66.54
2019-04-28T12:37:33.689Z,67.74
2019-04-28T12:40:01.947Z,66.00
2019-04-28T12:42:30.195Z,68.20
2019-04-28T12:44:58.536Z,68.18
2019-04-28T12:47:27.093Z,67.22
2019-04-28T12:49:59.463Z,67.07
2019-04-28T12:52:27.727Z,65.51
2019-04-28T12:54:56.066Z,64.72
2019-04-28T12:57:24.384Z,62.85
2019-04-28T13:00:03.565Z,63.20
2019-04-28T13:02:33.535Z,60.46
2019-04-28T13:05:03.694Z,60.85
2019-04-28T13:07:31.969Z,64.07
2019-04-28T13:10:00.347Z,63.97
2019-04-28T13:12:28.693Z,66.61
2019-04-28T13:14:57.047Z,68.21
2019-04-28T13:17:26.298Z,67.78
2019-04-28T13:19:54.609Z,71.07
2019-04-28T13:22:22.874Z,75.13
2019-04-28T13:24:51.126Z,73.10
2019-04-28T13:27:19.367Z,72.88
2019-04-28T13:29:47.646Z,73.09
2019-04-28T13:32:15.909Z,72.20
2019-04-28T13:34:44.172Z,66.28
2019-04-28T13:37:12.513Z,65.37
2019-04-28T13:39:42.456Z,65.25
2019-04-28T13:42:10.715Z,63.98
2019-04-28T13:44:49.909Z,62.06
2019-04-28T13:47:18.178Z,62.00
2019-04-28T13:49:56.934Z,58.50
2019-04-28T13:52:25.190Z,58.38
2019-04-28T13:54:55.103Z,57.18
2019-04-28T13:57:25.272Z,58.85
2019-04-28T13:59:55.208Z,56.68
2019-04-28T14:02:30.900Z,56.20
2019-04-28T14:05:10.098Z,54.41
2019-04-28T14:07:38.368Z,49.43
2019-04-28T14:10:07.412Z,48.89
2019-04-28T14:12:35.669Z,44.54
2019-04-28T14:15:04.272Z,44.61
2019-04-28T14:17:32.554Z,44.18
2019-04-28T14:20:00.804Z,45.32
2019-04-28T14:22:29.105Z,44.29
2019-04-28T14:24:57.345Z,43.81
2019-04-28T14:27:25.584Z,46.40
2019-04-28T14:29:53.857Z,47.80
2019-04-28T14:32:22.263Z,47.86
2019-04-28T14:34:50.646Z,47.03
2019-04-28T14:37:18.892Z,44.05
2019-04-28T14:39:47.138Z,43.79
2019-04-28T14:42:15.462Z,46.43
2019-04-28T14:44:43.720Z,47.40
2019-04-28T14:47:12.107Z,47.23
2019-04-28T14:49:40.346Z,42.83
2019-04-28T14:52:08.619Z,44.56
2019-04-28T14:54:36.975Z,45.13
2019-04-28T14:57:05.303Z,45.36
2019-04-28T14:59:33.555Z,46.17
2019-04-28T15:02:21.828Z,45.78
2019-04-28T15:05:07.876Z,45.33
2019-04-28T15:07:46.597Z,45.89
2019-04-28T15:10:32.626Z,45.51
2019-04-28T15:13:01.175Z,45.25
2019-04-28T15:15:29.531Z,45.62
2019-04-28T15:17:57.780Z,47.56
2019-04-28T15:20:26.052Z,49.77
2019-04-28T15:22:54.441Z,49.81
2019-04-28T15:25:22.697Z,50.75
2019-04-28T15:27:51.875Z,51.28
2019-04-28T15:30:20.889Z,51.11
2019-04-28T15:32:48.599Z,48.98
2019-04-28T15:35:16.872Z,47.62
2019-04-28T15:37:46.100Z,47.75
2019-04-28T15:40:14.363Z,49.58
2019-04-28T15:42:42.645Z,49.54
2019-04-28T15:45:10.963Z,48.43
2019-04-28T15:47:39.333Z,49.74
2019-04-28T15:50:07.619Z,47.76
2019-04-28T15:52:35.915Z,49.74
2019-04-28T15:55:07.548Z,48.71
2019-04-28T15:57:35.934Z,49.58
2019-04-28T16:00:08.533Z,50.16
2019-04-28T16:02:38.820Z,50.66
2019-04-28T16:05:07.537Z,51.48
2019-04-28T16:07:35.811Z,51.92
2019-04-28T16:10:05.308Z,52.05
2019-04-28T16:12:33.662Z,53.57
2019-04-28T16:15:02.047Z,53.03
2019-04-28T16:17:30.327Z,51.87
2019-04-28T16:19:58.592Z,52.92
2019-04-28T16:22:26.882Z,53.62
2019-04-28T16:24:55.133Z,54.46
2019-04-28T16:27:23.419Z,55.33
2019-04-28T16:29:51.683Z,56.23
2019-04-28T16:32:19.961Z,55.66
2019-04-28T16:34:48.220Z,56.96
2019-04-28T16:37:16.574Z,55.59
2019-04-28T16:39:44.824Z,55.97
2019-04-28T16:42:15.002Z,57.99
2019-04-28T16:44:43.257Z,60.21
2019-04-28T16:47:11.544Z,61.48
2019-04-28T16:49:39.816Z,60.70
2019-04-28T16:52:08.186Z,61.61
2019-04-28T16:54:36.447Z,61.99
2019-04-28T16:57:09.104Z,60.83
2019-04-28T17:02:30.674Z,61.95
2019-04-28T17:04:58.959Z,62.14
2019-04-28T17:07:27.486Z,61.59
2019-04-28T17:09:55.755Z,61.85
2019-04-28T17:12:24.264Z,61.53
2019-04-28T17:14:52.515Z,61.60
2019-04-28T17:17:20.797Z,62.41
2019-04-28T17:19:49.072Z,62.50
2019-04-28T17:22:17.365Z,63.88
2019-04-28T17:24:45.632Z,63.69
2019-04-28T17:27:13.938Z,63.64
2019-04-28T17:29:42.193Z,62.93
2019-04-28T17:32:10.596Z,62.69
2019-04-28T17:34:38.961Z,62.12
2019-04-28T17:37:07.383Z,61.63
2019-04-28T17:39:35.650Z,60.40
2019-04-28T17:42:05.161Z,61.00
2019-04-28T17:44:33.453Z,61.75
2019-04-28T17:47:01.710Z,61.51
2019-04-28T17:49:31.625Z,61.36
2019-04-28T17:51:59.892Z,60.27
2019-04-28T17:54:28.188Z,60.64
2019-04-28T17:56:56.445Z,60.37
2019-04-28T17:59:24.732Z,60.16
2019-04-28T18:01:54.713Z,61.25
2019-04-28T18:04:24.651Z,61.81
2019-04-28T18:06:54.549Z,61.90
2019-04-28T18:09:23.003Z,62.28
2019-04-28T18:11:51.265Z,62.94
2019-04-28T18:14:19.551Z,63.27
2019-04-28T18:17:06.006Z,63.16
2019-04-28T18:19:34.677Z,63.43
2019-04-28T18:22:02.931Z,63.70
2019-04-28T18:24:31.213Z,64.23
2019-04-28T18:26:59.468Z,64.76
2019-04-28T18:29:27.764Z,65.28
2019-04-28T18:31:57.701Z,65.99
2019-04-28T18:34:30.744Z,66.33
2019-04-28T18:37:06.396Z,66.31
2019-04-28T18:39:36.439Z,66.78
2019-04-28T18:42:18.217Z,68.30
2019-04-28T18:44:46.511Z,69.36
2019-04-28T18:47:27.901Z,70.05
2019-04-28T18:49:56.234Z,70.18
2019-04-28T18:52:24.578Z,69.81
2019-04-28T18:54:52.951Z,71.14
2019-04-28T18:57:21.672Z,71.39
2019-04-28T18:59:49.959Z,72.47
2019-04-28T19:02:36.197Z,73.16
2019-04-28T19:05:06.780Z,73.69
2019-04-28T19:07:42.639Z,73.51
2019-04-28T19:10:29.082Z,73.72
2019-04-28T19:12:59.003Z,73.74
2019-04-28T19:15:45.322Z,73.52
2019-04-28T19:18:15.235Z,73.45
2019-04-28T19:20:43.518Z,73.43
2019-04-28T19:23:11.776Z,73.35
2019-04-28T19:25:40.137Z,73.23
2019-04-28T19:28:08.481Z,73.35
2019-04-28T19:30:36.768Z,73.12
2019-04-28T19:33:05.188Z,73.05
2019-04-28T19:35:33.564Z,73.45
2019-04-28T19:38:01.814Z,73.45
2019-04-28T19:40:30.092Z,72.61
2019-04-28T19:42:58.341Z,72.71
2019-04-28T19:45:26.651Z,73.54
2019-04-28T19:47:54.879Z,74.55
2019-04-28T19:50:23.167Z,75.29
2019-04-28T19:52:51.422Z,75.52
2019-04-28T19:55:21.350Z,75.92
2019-04-28T19:57:54.163Z,76.46
2019-04-28T20:00:30.057Z,77.60
2019-04-28T20:02:58.326Z,78.04
2019-04-28T20:05:26.613Z,77.92
2019-04-28T20:07:54.891Z,77.55
2019-04-28T20:10:23.174Z,76.37
2019-04-28T20:12:51.447Z,76.33
2019-04-28T20:15:19.728Z,77.55
2019-04-28T20:17:48.017Z,77.88
2019-04-28T20:20:16.426Z,77.09
2019-04-28T20:22:46.021Z,77.53
2019-04-28T20:25:14.343Z,77.64
2019-04-28T20:27:42.608Z,77.76
2019-04-28T20:30:11.356Z,76.32
2019-04-28T20:38:30.529Z,77.26
2019-04-28T20:41:00.426Z,77.81
2019-04-28T20:43:29.940Z,78.19
2019-04-28T20:45:58.267Z,78.36
2019-04-28T20:48:26.679Z,78.75
2019-04-28T20:50:54.968Z,77.70
2019-04-28T20:53:23.251Z,77.40
2019-04-28T20:55:51.552Z,77.52
2019-04-28T20:58:19.804Z,76.64
2019-04-28T21:00:48.089Z,77.08
2019-04-28T21:03:16.378Z,76.76
2019-04-28T21:05:44.667Z,77.05
2019-04-28T21:08:12.931Z,76.64
2019-04-28T21:10:41.210Z,76.39
2019-04-28T21:13:09.544Z,75.94
2019-04-28T21:15:37.862Z,76.45
2019-04-28T21:18:06.136Z,76.18
2019-04-28T21:20:34.412Z,75.94
2019-04-28T21:23:02.701Z,75.94
2019-04-28T21:25:30.962Z,76.54
2019-04-28T21:27:59.254Z,76.75
2019-04-28T21:30:27.518Z,76.49
2019-04-28T21:32:55.907Z,76.15
2019-04-28T21:35:24.147Z,77.29
2019-04-28T21:37:52.429Z,77.92
2019-04-28T21:40:21.049Z,78.65
2019-04-28T21:43:03.094Z,78.27
2019-04-28T21:45:50.338Z,78.66
2019-04-28T21:48:35.657Z,78.62
2019-04-28T21:51:03.911Z,78.52
2019-04-28T21:53:32.222Z,79.46
2019-04-28T21:56:00.484Z,79.69
2019-04-28T21:58:33.190Z,79.91
2019-04-28T22:00:59.114Z,80.24
2019-04-28T22:03:27.395Z,80.62
2019-04-28T22:05:55.641Z,80.78
2019-04-28T22:08:23.930Z,80.68
2019-04-28T22:10:52.200Z,80.98
2019-04-28T22:13:20.477Z,80.34
2019-04-28T22:15:48.735Z,80.80
2019-04-28T22:18:17.012Z,81.18
2019-04-28T22:20:45.274Z,81.60
2019-04-28T22:23:18.551Z,81.29
2019-04-28T22:25:45.172Z,81.38
2019-04-28T22:28:13.451Z,81.15
2019-04-28T22:30:41.722Z,81.31
2019-04-28T22:33:10.004Z,81.33
2019-04-28T22:35:38.257Z,81.14
2019-04-28T22:38:06.535Z,80.62
2019-04-28T22:40:34.785Z,80.46
2019-04-28T22:43:03.069Z,80.94
2019-04-28T22:45:31.328Z,80.99
2019-04-28T22:47:59.617Z,80.86
2019-04-28T22:50:36.354Z,80.26
2019-04-28T22:53:04.637Z,80.13
2019-04-28T22:55:34.532Z,79.91
2019-04-28T22:58:04.462Z,80.97
2019-04-28T23:00:34.352Z,80.66
2019-04-28T23:03:02.627Z,80.32
2019-04-28T23:05:30.905Z,80.10
2019-04-28T23:07:59.193Z,79.88
2019-04-28T23:10:27.446Z,79.84
2019-04-28T23:12:55.754Z,79.62
2019-04-28T23:15:24.042Z,79.55
2019-04-28T23:17:52.414Z,79.81
2019-04-28T23:20:24.230Z,79.64
2019-04-28T23:22:52.515Z,79.89
2019-04-28T23:25:20.854Z,80.10
2019-04-28T23:27:49.136Z,79.52
2019-04-28T23:30:37.966Z,80.02
2019-04-28T23:33:06.247Z,80.73
2019-04-28T23:35:34.508Z,80.99
2019-04-28T23:38:02.813Z,81.16
2019-04-28T23:40:31.066Z,81.56
2019-04-28T23:43:00.973Z,81.63
2019-04-28T23:45:29.326Z,81.42
2019-04-28T23:47:57.583Z,81.67
2019-04-28T23:50:27.506Z,81.78
2019-04-28T23:52:57.418Z,82.26
2019-04-28T23:55:25.702Z,82.26
2019-04-28T23:57:53.973Z,82.08
